Time;durP1;ratioP1;P1;durP2;ratioP2;P2;SDS_P1;SDS_P2;PMS_P1;PMS_P2;Temp;Humidity;BMP_temperature;BMP_pressure;BME280_temperature;BME280_humidity;BME280_pressure;Samples;Min_cycle;Max_cycle;Signal;HPM_P1;HPM_P2
2023/09/09 00:01:30;;;;;;;0.00;0.00;;;;;;;20.82;64.44;100362.72;4964823;28;20041;-74
2023/09/09 00:03:56;;;;;;;0.00;0.00;;;;;;;20.81;64.17;100363.88;4948291;28;20410;-74
2023/09/09 00:06:21;;;;;;;0.00;0.00;;;;;;;20.77;64.40;100363.75;4959770;28;20034;-74
2023/09/09 00:08:47;;;;;;;0.00;0.00;;;;;;;20.73;64.67;100354.44;4985405;28;20457;-74
2023/09/09 00:11:12;;;;;;;0.00;0.00;;;;;;;20.71;64.86;100357.56;4932059;28;20047;-73
2023/09/09 00:13:38;;;;;;;0.00;0.00;;;;;;;20.73;65.08;100360.00;4933090;28;20034;-74
2023/09/09 00:16:03;;;;;;;0.00;0.00;;;;;;;20.65;65.30;100353.34;4979493;28;20077;-75
2023/09/09 00:18:29;;;;;;;0.00;0.00;;;;;;;20.66;65.35;100343.88;4956007;28;20405;-74
2023/09/09 00:20:55;;;;;;;0.00;0.00;;;;;;;20.64;65.26;100335.03;4968420;28;20093;-73
2023/09/09 00:23:20;;;;;;;0.00;0.00;;;;;;;20.67;65.47;100351.03;4942058;28;20034;-76
2023/09/09 00:25:46;;;;;;;0.00;0.00;;;;;;;20.63;65.40;100338.94;4987563;28;20042;-74
2023/09/09 00:28:13;;;;;;;0.00;0.00;;;;;;;20.62;65.78;100331.78;4945248;28;21717;-74
2023/09/09 00:30:39;;;;;;;0.00;0.00;;;;;;;20.66;65.75;100338.34;4954078;28;20084;-74
2023/09/09 00:33:07;;;;;;;0.00;0.00;;;;;;;20.62;65.48;100342.06;4974628;28;20026;-74
2023/09/09 00:35:32;;;;;;;0.00;0.00;;;;;;;20.65;65.63;100341.41;4946243;28;20434;-74
2023/09/09 00:37:58;;;;;;;0.00;0.00;;;;;;;20.60;65.67;100328.50;4962160;28;20038;-74
2023/09/09 00:40:24;;;;;;;0.00;0.00;;;;;;;20.58;65.86;100341.94;4977753;28;20026;-74
2023/09/09 00:42:49;;;;;;;0.00;0.00;;;;;;;20.55;66.10;100346.19;4958868;28;20026;-74
2023/09/09 00:45:15;;;;;;;0.00;0.00;;;;;;;20.49;66.51;100343.94;4979604;28;20470;-74
2023/09/09 00:47:40;;;;;;;0.00;0.00;;;;;;;20.40;66.69;100333.69;4975451;28;20118;-74
2023/09/09 00:50:10;;;;;;;0.00;0.00;;;;;;;20.41;66.90;100331.72;4957823;28;20045;-74
2023/09/09 00:52:39;;;;;;;0.00;0.00;;;;;;;20.41;66.71;100340.06;4952225;28;20569;-74
2023/09/09 00:55:11;;;;;;;0.00;0.00;;;;;;;20.38;67.34;100326.84;4979070;28;20393;-74
2023/09/09 00:57:36;;;;;;;0.00;0.00;;;;;;;20.40;67.03;100328.16;4961755;28;20026;-73
2023/09/09 01:00:09;;;;;;;0.00;0.00;;;;;;;20.36;66.97;100329.16;4970292;28;20040;-72
2023/09/09 01:02:43;;;;;;;0.00;0.00;;;;;;;20.33;67.34;100330.63;4973494;28;20022;-74
2023/09/09 01:05:10;;;;;;;0.00;0.00;;;;;;;20.34;67.62;100343.38;4940172;28;20366;-75
2023/09/09 01:07:46;;;;;;;0.00;0.00;;;;;;;20.27;67.70;100326.41;4973933;28;20030;-75
2023/09/09 01:10:12;;;;;;;0.00;0.00;;;;;;;20.23;68.06;100337.34;4945357;28;20031;-75
2023/09/09 01:12:38;;;;;;;0.00;0.00;;;;;;;20.17;68.78;100333.16;4975351;28;20077;-73
2023/09/09 01:15:06;;;;;;;0.00;0.00;;;;;;;20.13;68.57;100321.06;4973071;28;20022;-74
2023/09/09 01:17:34;;;;;;;0.00;0.00;;;;;;;20.16;68.63;100336.25;4980952;28;20050;-74
2023/09/09 01:20:00;;;;;;;0.00;0.00;;;;;;;20.16;68.53;100325.16;4954520;28;20034;-75
2023/09/09 01:22:33;;;;;;;0.00;0.00;;;;;;;20.12;68.55;100324.19;4977971;28;20030;-74
2023/09/09 01:24:59;;;;;;;0.00;0.00;;;;;;;20.11;69.02;100336.47;4954438;28;20482;-75
2023/09/09 01:27:24;;;;;;;0.00;0.00;;;;;;;20.11;68.87;100339.25;4977854;28;20057;-75
2023/09/09 01:29:49;;;;;;;0.00;0.00;;;;;;;20.08;69.23;100335.16;4951229;28;20035;-75
2023/09/09 01:32:15;;;;;;;0.00;0.00;;;;;;;20.05;69.58;100331.06;4975310;28;20042;-74
2023/09/09 01:34:40;;;;;;;0.00;0.00;;;;;;;20.03;69.86;100333.38;4968424;28;20092;-73
2023/09/09 01:37:06;;;;;;;0.00;0.00;;;;;;;19.99;70.09;100321.31;4940428;28;20431;-76
2023/09/09 01:39:32;;;;;;;0.00;0.00;;;;;;;19.97;70.25;100320.81;4951825;28;20084;-74
2023/09/09 01:41:57;;;;;;;0.00;0.00;;;;;;;19.87;70.08;100315.63;4975977;28;20049;-76
2023/09/09 01:44:23;;;;;;;0.00;0.00;;;;;;;19.87;70.14;100315.63;4945453;28;20472;-72
2023/09/09 01:46:48;;;;;;;0.00;0.00;;;;;;;19.90;70.29;100322.47;4948415;28;20041;-73
2023/09/09 01:49:13;;;;;;;0.00;0.00;;;;;;;19.86;70.35;100317.59;4954620;28;20740;-74
2023/09/09 01:51:39;;;;;;;0.00;0.00;;;;;;;19.88;70.67;100312.50;4963685;28;20018;-73
2023/09/09 01:54:04;;;;;;;0.00;0.00;;;;;;;19.85;70.71;100315.16;4942228;28;20031;-74
2023/09/09 01:56:30;;;;;;;0.00;0.00;;;;;;;19.82;70.61;100305.53;4923156;28;20033;-74
2023/09/09 01:58:55;;;;;;;0.00;0.00;;;;;;;19.85;70.76;100315.97;4959120;28;20038;-75
2023/09/09 02:01:21;;;;;;;0.00;0.00;;;;;;;19.77;71.30;100302.09;4957752;28;20039;-74
2023/09/09 02:03:47;;;;;;;0.00;0.00;;;;;;;19.78;71.06;100303.72;4941802;28;20481;-74
2023/09/09 02:06:12;;;;;;;0.00;0.00;;;;;;;19.70;71.13;100308.97;4969802;28;20068;-74
2023/09/09 02:08:38;;;;;;;0.00;0.00;;;;;;;19.71;71.28;100309.75;4980539;28;20018;-75
2023/09/09 02:11:03;;;;;;;0.00;0.00;;;;;;;19.69;71.32;100300.97;4972303;28;20042;-73
2023/09/09 02:13:29;;;;;;;0.00;0.00;;;;;;;19.70;71.41;100308.16;4957274;28;20027;-75
2023/09/09 02:16:03;;;;;;;0.00;0.00;;;;;;;19.67;71.62;100298.53;4976547;28;20057;-76
2023/09/09 02:18:28;;;;;;;0.00;0.00;;;;;;;19.66;71.79;100296.91;4972022;28;20053;-74
2023/09/09 02:20:57;;;;;;;0.00;0.00;;;;;;;19.68;72.01;100305.72;4976600;28;20034;-75
2023/09/09 02:23:23;;;;;;;0.00;0.00;;;;;;;19.68;71.52;100294.63;4998622;28;20037;-75
2023/09/09 02:25:48;;;;;;;0.00;0.00;;;;;;;19.66;71.71;100296.91;4965813;28;20022;-74
2023/09/09 02:28:14;;;;;;;0.00;0.00;;;;;;;19.64;71.69;100298.38;4962742;28;20121;-73
2023/09/09 02:30:42;;;;;;;0.00;0.00;;;;;;;19.56;71.96;100297.25;4982499;28;20018;-74
2023/09/09 02:33:08;;;;;;;0.00;0.00;;;;;;;19.56;71.70;100302.00;4980176;28;20029;-74
2023/09/09 02:35:33;;;;;;;0.00;0.00;;;;;;;19.56;71.89;100310.31;4958724;28;20042;-74
2023/09/09 02:37:59;;;;;;;0.00;0.00;;;;;;;19.54;71.92;100307.88;4959856;28;20477;-75
2023/09/09 02:40:24;;;;;;;0.00;0.00;;;;;;;19.50;72.27;100310.47;4979131;28;20034;-75
2023/09/09 02:42:50;;;;;;;0.00;0.00;;;;;;;19.51;72.05;100314.06;4965656;28;20348;-74
2023/09/09 02:45:15;;;;;;;0.00;0.00;;;;;;;19.45;72.60;100302.34;4978590;28;20045;-74
2023/09/09 02:47:40;;;;;;;0.00;0.00;;;;;;;19.46;72.63;100314.22;4966593;28;20064;-74
2023/09/09 02:50:07;;;;;;;0.00;0.00;;;;;;;19.40;72.59;100304.47;4977069;28;20034;-75
2023/09/09 02:52:32;;;;;;;0.00;0.00;;;;;;;19.36;72.83;100305.13;4985416;28;20381;-75
2023/09/09 02:54:58;;;;;;;0.00;0.00;;;;;;;19.39;72.82;100306.44;4981309;28;20058;-73
2023/09/09 02:57:23;;;;;;;0.00;0.00;;;;;;;19.34;72.73;100301.84;4974487;28;20038;-73
2023/09/09 02:59:49;;;;;;;0.00;0.00;;;;;;;19.34;72.99;100312.13;4978292;28;20089;-73
2023/09/09 03:02:15;;;;;;;0.00;0.00;;;;;;;19.34;73.38;100318.47;4970555;28;20030;-73
2023/09/09 03:04:40;;;;;;;0.00;0.00;;;;;;;19.28;73.47;100319.81;4971731;28;20030;-76
2023/09/09 03:07:06;;;;;;;0.00;0.00;;;;;;;19.27;73.20;100317.34;4953085;28;21160;-75
2023/09/09 03:09:32;;;;;;;0.00;0.00;;;;;;;19.21;73.77;100313.94;4990545;28;20038;-76
2023/09/09 03:11:57;;;;;;;0.00;0.00;;;;;;;19.18;73.70;100322.91;4974559;28;20026;-75
2023/09/09 03:14:23;;;;;;;0.00;0.00;;;;;;;19.14;74.29;100313.59;4981601;28;20076;-75
2023/09/09 03:16:49;;;;;;;0.00;0.00;;;;;;;19.08;74.52;100307.41;4980747;28;20033;-73
2023/09/09 03:19:14;;;;;;;0.00;0.00;;;;;;;19.09;74.65;100306.28;4968332;28;20058;-75
2023/09/09 03:21:40;;;;;;;0.00;0.00;;;;;;;19.08;74.16;100306.59;4960664;28;20080;-76
2023/09/09 03:24:05;;;;;;;0.00;0.00;;;;;;;19.06;74.51;100306.94;4980782;28;20038;-74
2023/09/09 03:26:31;;;;;;;0.00;0.00;;;;;;;19.02;74.73;100306.75;4966398;28;20030;-75
2023/09/09 03:28:58;;;;;;;0.00;0.00;;;;;;;19.02;74.67;100312.31;4966190;28;20084;-75
2023/09/09 03:31:23;;;;;;;0.00;0.00;;;;;;;19.05;74.85;100316.38;4974535;28;20224;-74
2023/09/09 03:33:48;;;;;;;0.00;0.00;;;;;;;19.05;74.56;100321.94;4975717;28;20033;-73
2023/09/09 03:36:14;;;;;;;0.00;0.00;;;;;;;19.04;75.21;100313.94;4999066;28;20030;-74
2023/09/09 03:38:39;;;;;;;0.00;0.00;;;;;;;19.02;74.70;100312.31;4961766;28;20055;-74
2023/09/09 03:41:08;;;;;;;0.00;0.00;;;;;;;19.06;74.75;100306.13;5003483;28;20030;-76
2023/09/09 03:43:35;;;;;;;0.00;0.00;;;;;;;19.03;74.58;100313.13;4990197;28;20038;-75
2023/09/09 03:46:01;;;;;;;0.00;0.00;;;;;;;18.98;75.26;100319.66;4980677;28;20240;-74
2023/09/09 03:48:26;;;;;;;0.00;0.00;;;;;;;18.92;74.91;100317.38;4982722;28;20046;-74
2023/09/09 03:50:57;;;;;;;0.00;0.00;;;;;;;18.81;75.56;100306.56;4981488;28;20034;-74
2023/09/09 03:53:22;;;;;;;0.00;0.00;;;;;;;18.80;75.45;100317.97;4990918;28;20026;-74
2023/09/09 03:55:47;;;;;;;0.00;0.00;;;;;;;18.73;75.89;100307.38;5003263;28;20688;-74
2023/09/09 03:58:13;;;;;;;0.00;0.00;;;;;;;18.72;76.19;100303.00;4979639;28;20064;-73
2023/09/09 04:00:38;;;;;;;0.00;0.00;;;;;;;18.71;76.11;100306.09;4984680;28;20025;-74
2023/09/09 04:03:04;;;;;;;0.00;0.00;;;;;;;18.73;75.92;100309.31;4976826;28;20026;-73
2023/09/09 04:05:29;;;;;;;0.00;0.00;;;;;;;18.73;76.27;100309.31;4994433;28;20042;-74
2023/09/09 04:07:58;;;;;;;0.00;0.00;;;;;;;18.73;76.29;100301.81;4998210;28;20026;-72
2023/09/09 04:10:23;;;;;;;0.00;0.00;;;;;;;18.74;76.78;100299.88;4964355;28;20038;-73
2023/09/09 04:12:49;;;;;;;0.00;0.00;;;;;;;18.74;76.44;100306.22;4992856;28;20476;-73
2023/09/09 04:15:14;;;;;;;0.00;0.00;;;;;;;18.71;76.65;100300.53;4977518;28;20033;-74
2023/09/09 04:17:40;;;;;;;0.00;0.00;;;;;;;18.66;76.78;100302.31;4977487;28;20046;-74
2023/09/09 04:20:08;;;;;;;0.00;0.00;;;;;;;18.63;76.38;100294.66;4986845;28;20038;-75
2023/09/09 04:22:34;;;;;;;0.00;0.00;;;;;;;18.65;76.32;100306.22;4965142;28;20037;-74
2023/09/09 04:24:59;;;;;;;0.00;0.00;;;;;;;18.63;76.41;100304.91;4980045;28;20022;-73
2023/09/09 04:27:25;;;;;;;0.00;0.00;;;;;;;18.60;76.98;100311.94;4984092;28;20031;-75
2023/09/09 04:29:51;;;;;;;0.00;0.00;;;;;;;18.54;76.95;100302.13;4981383;28;20030;-74
2023/09/09 04:32:16;;;;;;;0.00;0.00;;;;;;;18.57;77.34;100301.47;4977301;28;20120;-75
2023/09/09 04:34:42;;;;;;;0.00;0.00;;;;;;;18.52;77.00;100304.41;4963296;28;20185;-75
2023/09/09 04:37:08;;;;;;;0.00;0.00;;;;;;;18.51;77.18;100302.78;4967333;28;20034;-74
2023/09/09 04:39:33;;;;;;;0.00;0.00;;;;;;;18.49;77.50;100302.28;4992681;28;20030;-75
2023/09/09 04:41:58;;;;;;;0.00;0.00;;;;;;;18.52;77.69;100309.16;4981595;28;20033;-75
2023/09/09 04:44:24;;;;;;;0.00;0.00;;;;;;;18.47;77.56;100307.31;4970334;28;20043;-74
2023/09/09 04:46:49;;;;;;;0.00;0.00;;;;;;;18.47;77.45;100318.38;4977616;28;20042;-74
2023/09/09 04:49:17;;;;;;;0.00;0.00;;;;;;;18.43;77.83;100314.66;4993702;28;20029;-74
2023/09/09 04:51:46;;;;;;;0.00;0.00;;;;;;;18.37;78.31;100307.63;4979318;28;20041;-74
2023/09/09 04:54:11;;;;;;;0.00;0.00;;;;;;;18.36;78.06;100317.09;5000847;28;20026;-75
2023/09/09 04:56:36;;;;;;;0.00;0.00;;;;;;;18.30;78.39;100317.22;4996300;28;20037;-74
2023/09/09 04:59:02;;;;;;;0.00;0.00;;;;;;;18.25;78.54;100317.38;4984853;28;20160;-75
2023/09/09 05:01:27;;;;;;;0.00;0.00;;;;;;;18.26;78.78;100313.44;4985295;28;20119;-74
2023/09/09 05:03:53;;;;;;;0.00;0.00;;;;;;;18.26;78.72;100315.41;4966378;28;20156;-72
2023/09/09 05:06:18;;;;;;;0.00;0.00;;;;;;;18.25;79.16;100316.53;4974578;28;20022;-72
2023/09/09 05:08:45;;;;;;;0.00;0.00;;;;;;;18.20;79.95;100311.97;4977167;28;20096;-71
2023/09/09 05:11:10;;;;;;;0.00;0.00;;;;;;;18.23;79.04;100311.31;4994792;28;20022;-72
2023/09/09 05:13:36;;;;;;;0.00;0.00;;;;;;;18.22;79.68;100304.16;4977679;28;21537;-72
2023/09/09 05:16:02;;;;;;;0.00;0.00;;;;;;;18.23;79.42;100305.00;4966318;28;20088;-75
2023/09/09 05:18:28;;;;;;;0.00;0.00;;;;;;;18.24;79.75;100310.19;4974998;28;20054;-73
2023/09/09 05:20:53;;;;;;;0.00;0.00;;;;;;;18.21;79.67;100294.25;4984883;28;20022;-74
2023/09/09 05:23:19;;;;;;;0.00;0.00;;;;;;;18.23;79.45;100303.03;4978597;28;20503;-73
2023/09/09 05:25:44;;;;;;;0.00;0.00;;;;;;;18.25;79.64;100309.06;4986972;28;20072;-75
2023/09/09 05:28:10;;;;;;;0.00;0.00;;;;;;;18.21;79.78;100310.00;4964948;28;20065;-76
2023/09/09 05:30:40;;;;;;;0.00;0.00;;;;;;;18.21;79.65;100321.91;4956884;28;20030;-74
2023/09/09 05:33:05;;;;;;;0.00;0.00;;;;;;;18.18;80.27;100321.72;4984644;28;20469;-73
2023/09/09 05:35:31;;;;;;;0.00;0.00;;;;;;;18.16;80.61;100322.03;4989576;28;20084;-75
2023/09/09 05:37:56;;;;;;;0.00;0.00;;;;;;;18.14;80.55;100318.78;4962764;28;20136;-73
2023/09/09 05:40:22;;;;;;;0.00;0.00;;;;;;;18.15;80.89;100328.72;4965215;28;20436;-75
2023/09/09 05:42:47;;;;;;;0.00;0.00;;;;;;;18.16;81.25;100324.00;4981688;28;20061;-73
2023/09/09 05:45:13;;;;;;;0.00;0.00;;;;;;;18.16;81.01;100312.94;4963684;28;20049;-73
2023/09/09 05:47:38;;;;;;;0.00;0.00;;;;;;;18.20;80.86;100314.75;4951012;28;20406;-73
2023/09/09 05:50:05;;;;;;;0.00;0.00;;;;;;;18.21;81.47;100315.53;4982902;28;20037;-74
2023/09/09 05:52:31;;;;;;;0.00;0.00;;;;;;;18.22;81.31;100312.44;4990353;28;20034;-74
2023/09/09 05:54:58;;;;;;;0.00;0.00;;;;;;;18.25;81.17;100311.84;4979445;28;20065;-73
2023/09/09 05:57:24;;;;;;;0.00;0.00;;;;;;;18.28;81.34;100326.97;4965391;28;20376;-74
2023/09/09 05:59:49;;;;;;;0.00;0.00;;;;;;;18.34;80.86;100324.88;4983741;28;20117;-71
2023/09/09 06:02:15;;;;;;;0.00;0.00;;;;;;;18.33;81.17;100317.72;4985222;28;20144;-75
2023/09/09 06:04:40;;;;;;;0.00;0.00;;;;;;;18.35;80.66;100320.97;4972558;28;20056;-72
2023/09/09 06:07:06;;;;;;;0.00;0.00;;;;;;;18.38;80.15;100320.34;4978967;28;20037;-74
2023/09/09 06:09:32;;;;;;;0.00;0.00;;;;;;;18.47;80.65;100330.31;4994124;28;20056;-73
2023/09/09 06:11:57;;;;;;;0.00;0.00;;;;;;;18.51;80.48;100324.91;4960784;28;20061;-75
2023/09/09 06:14:22;;;;;;;0.00;0.00;;;;;;;18.54;79.72;100324.28;4975659;28;20030;-75
2023/09/09 06:16:49;;;;;;;0.00;0.00;;;;;;;18.55;79.92;100325.91;4949936;28;20050;-75
2023/09/09 06:19:14;;;;;;;0.00;0.00;;;;;;;18.65;79.94;100324.81;4975497;28;20504;-74
2023/09/09 06:21:40;;;;;;;0.00;0.00;;;;;;;18.76;79.88;100339.16;4960194;28;20034;-75
2023/09/09 06:24:08;;;;;;;0.00;0.00;;;;;;;18.78;79.72;100334.13;4972626;28;20038;-74
2023/09/09 06:26:34;;;;;;;0.00;0.00;;;;;;;18.85;79.56;100331.66;4968788;28;20045;-73
2023/09/09 06:29:02;;;;;;;0.00;0.00;;;;;;;18.95;79.25;100334.16;4960611;28;20496;-75
2023/09/09 06:31:28;;;;;;;0.00;0.00;;;;;;;19.07;78.80;100329.91;4992211;28;20034;-74
2023/09/09 06:33:53;;;;;;;0.00;0.00;;;;;;;19.21;78.83;100340.84;4960095;28;20053;-74
2023/09/09 06:36:22;;;;;;;0.00;0.00;;;;;;;19.31;79.00;100329.44;4959447;28;20370;-77
2023/09/09 06:38:48;;;;;;;0.00;0.00;;;;;;;19.38;78.29;100324.19;4980998;28;20377;-75
2023/09/09 06:41:14;;;;;;;0.00;0.00;;;;;;;19.54;78.48;100341.16;4962481;28;20374;-75
2023/09/09 06:43:39;;;;;;;0.00;0.00;;;;;;;19.59;77.69;100340.97;4963158;28;20041;-73
2023/09/09 06:46:05;;;;;;;0.00;0.00;;;;;;;19.66;77.73;100338.50;4990766;28;20091;-75
2023/09/09 06:48:30;;;;;;;0.00;0.00;;;;;;;19.80;77.56;100349.44;4944795;28;20049;-73
2023/09/09 06:50:56;;;;;;;0.00;0.00;;;;;;;19.87;77.70;100338.66;4944256;28;20061;-74
2023/09/09 06:53:24;;;;;;;0.00;0.00;;;;;;;19.97;77.76;100345.78;4987164;28;20035;-73
2023/09/09 06:55:49;;;;;;;0.00;0.00;;;;;;;20.09;77.16;100341.50;4976490;28;20030;-74
2023/09/09 06:58:15;;;;;;;0.00;0.00;;;;;;;20.20;77.24;100343.59;4992729;28;20045;-74
2023/09/09 07:00:41;;;;;;;0.00;0.00;;;;;;;20.24;76.95;100327.09;4967136;28;20022;-73
2023/09/09 07:03:07;;;;;;;0.00;0.00;;;;;;;20.46;76.41;100342.66;4979553;28;20393;-73
2023/09/09 07:05:33;;;;;;;0.00;0.00;;;;;;;20.55;76.36;100342.59;4965157;28;20038;-74
2023/09/09 07:07:58;;;;;;;0.00;0.00;;;;;;;20.71;75.95;100343.66;4971425;28;20119;-74
2023/09/09 07:10:24;;;;;;;0.00;0.00;;;;;;;20.83;75.94;100337.38;4983699;28;20038;-75
2023/09/09 07:12:49;;;;;;;0.00;0.00;;;;;;;20.95;75.65;100344.97;4954562;28;20041;-75
2023/09/09 07:15:15;;;;;;;0.00;0.00;;;;;;;21.07;75.42;100341.44;4970279;28;20022;-75
2023/09/09 07:17:43;;;;;;;0.00;0.00;;;;;;;21.27;74.97;100348.16;4991345;28;20042;-73
2023/09/09 07:20:09;;;;;;;0.00;0.00;;;;;;;21.41;74.66;100351.47;4951078;28;20124;-74
2023/09/09 07:22:34;;;;;;;0.00;0.00;;;;;;;21.53;73.89;100341.59;4970012;28;20662;-74
2023/09/09 07:25:00;;;;;;;0.00;0.00;;;;;;;21.70;74.00;100363.66;4988798;28;20100;-73
2023/09/09 07:27:25;;;;;;;0.00;0.00;;;;;;;21.80;73.18;100359.66;4986587;28;20030;-72
2023/09/09 07:29:50;;;;;;;0.00;0.00;;;;;;;21.87;73.38;100350.72;4981796;28;20044;-73
2023/09/09 07:32:16;;;;;;;0.00;0.00;;;;;;;22.05;73.02;100354.94;4988185;28;20064;-73
2023/09/09 07:34:41;;;;;;;0.00;0.00;;;;;;;22.15;72.54;100362.00;4984671;28;20042;-73
2023/09/09 07:37:07;;;;;;;0.00;0.00;;;;;;;22.37;72.41;100369.16;4961410;28;20033;-74
2023/09/09 07:39:44;;;;;;;0.00;0.00;;;;;;;22.51;71.64;100362.44;4980246;28;20044;-73
2023/09/09 07:42:10;;;;;;;0.00;0.00;;;;;;;22.70;71.04;100368.22;4973914;28;20067;-73
2023/09/09 07:44:35;;;;;;;0.00;0.00;;;;;;;22.84;70.32;100365.88;4984514;28;20042;-73
2023/09/09 07:47:06;;;;;;;0.00;0.00;;;;;;;22.96;70.30;100370.63;4984670;28;20038;-73
2023/09/09 07:49:32;;;;;;;0.00;0.00;;;;;;;23.03;69.48;100361.66;4965208;28;20088;-72
2023/09/09 07:51:57;;;;;;;0.00;0.00;;;;;;;23.18;69.55;100374.09;4955710;28;20022;-73
2023/09/09 07:54:22;;;;;;;0.00;0.00;;;;;;;23.14;69.11;100360.03;4971784;28;20062;-73
2023/09/09 07:56:48;;;;;;;0.00;0.00;;;;;;;23.23;68.36;100375.81;4973630;28;20493;-73
2023/09/09 07:59:13;;;;;;;0.00;0.00;;;;;;;23.35;68.79;100373.00;4974405;28;20436;-73
2023/09/09 08:01:39;;;;;;;0.00;0.00;;;;;;;23.64;68.07;100373.78;4965174;28;20030;-73
2023/09/09 08:04:05;;;;;;;0.00;0.00;;;;;;;23.80;67.15;100371.84;4984605;28;20087;-75
2023/09/09 08:06:30;;;;;;;0.00;0.00;;;;;;;24.01;66.89;100380.00;4956909;28;20042;-72
2023/09/09 08:08:55;;;;;;;0.00;0.00;;;;;;;24.17;66.85;100373.66;4971065;28;20041;-73
2023/09/09 08:11:21;;;;;;;0.00;0.00;;;;;;;24.38;66.23;100384.53;4954556;28;20046;-74
2023/09/09 08:13:46;;;;;;;0.00;0.00;;;;;;;24.58;65.57;100372.25;4950281;28;20018;-74
2023/09/09 08:16:12;;;;;;;0.00;0.00;;;;;;;24.72;65.94;100373.78;4981996;28;20030;-73
2023/09/09 08:18:37;;;;;;;0.00;0.00;;;;;;;24.79;64.96;100365.56;4967775;28;20105;-73
2023/09/09 08:21:03;;;;;;;0.00;0.00;;;;;;;24.96;64.90;100363.56;4974776;28;20121;-74
2023/09/09 08:23:28;;;;;;;0.00;0.00;;;;;;;25.22;64.74;100366.53;4964794;28;20031;-73
2023/09/09 08:25:55;;;;;;;0.00;0.00;;;;;;;25.66;63.75;100361.84;4939815;28;20058;-74
2023/09/09 08:28:21;;;;;;;0.00;0.00;;;;;;;26.09;62.87;100368.25;4959556;28;20101;-72
2023/09/09 08:30:47;;;;;;;0.00;0.00;;;;;;;26.48;62.24;100360.47;4948425;28;20037;-73
2023/09/09 08:33:12;;;;;;;0.00;0.00;;;;;;;26.93;61.23;100366.38;4960449;28;20366;-73
2023/09/09 08:35:37;;;;;;;0.00;0.00;;;;;;;27.06;60.90;100363.34;4959832;28;20035;-73
2023/09/09 08:38:04;;;;;;;0.00;0.00;;;;;;;27.33;60.21;100370.53;4940033;28;20089;-73
2023/09/09 08:40:38;;;;;;;0.00;0.00;;;;;;;27.76;59.37;100361.00;4962560;28;20034;-72
2023/09/09 08:43:23;;;;;;;0.00;0.00;;;;;;;28.43;57.97;100374.09;4962426;28;20037;-72
2023/09/09 08:46:10;;;;;;;0.00;0.00;;;;;;;29.22;55.60;100382.28;4967456;28;20034;-73
2023/09/09 08:48:37;;;;;;;0.00;0.00;;;;;;;30.13;52.89;100383.38;4971734;28;20029;-73
2023/09/09 08:51:04;;;;;;;0.00;0.00;;;;;;;30.95;51.15;100380.50;4967017;28;20034;-73
2023/09/09 08:53:31;;;;;;;0.00;0.00;;;;;;;31.93;48.72;100382.94;4961108;28;20035;-73
2023/09/09 08:55:58;;;;;;;0.00;0.00;;;;;;;32.72;47.08;100388.00;4965306;28;20035;-74
2023/09/09 08:58:24;;;;;;;0.00;0.00;;;;;;;33.53;45.32;100384.66;4945029;28;20058;-75
2023/09/09 09:00:50;;;;;;;0.00;0.00;;;;;;;34.26;43.92;100390.09;4970023;28;20077;-74
2023/09/09 09:03:17;;;;;;;0.00;0.00;;;;;;;34.89;42.25;100382.94;4959283;28;20066;-74
2023/09/09 09:05:44;;;;;;;0.00;0.00;;;;;;;35.52;41.08;100393.44;4962140;28;20122;-74
2023/09/09 09:08:10;;;;;;;0.00;0.00;;;;;;;36.09;39.87;100391.34;4955137;28;20038;-73
2023/09/09 09:10:40;;;;;;;0.00;0.00;;;;;;;36.62;38.68;100382.72;4937851;28;20041;-74
2023/09/09 09:13:06;;;;;;;0.00;0.00;;;;;;;37.00;38.20;100402.06;4963851;28;20045;-75
2023/09/09 09:15:33;;;;;;;0.00;0.00;;;;;;;37.66;36.91;100395.28;4939290;28;20061;-75
2023/09/09 09:17:59;;;;;;;0.00;0.00;;;;;;;38.36;35.65;100395.53;4969035;28;20050;-74
2023/09/09 09:20:27;;;;;;;0.00;0.00;;;;;;;38.38;35.22;100393.03;4985354;28;21854;-75
2023/09/09 09:22:57;;;;;;;0.00;0.00;;;;;;;37.68;35.72;100387.88;4968115;28;20102;-71
2023/09/09 09:25:22;;;;;;;0.00;0.00;;;;;;;36.57;36.87;100383.25;4990212;28;20093;-72
2023/09/09 09:27:48;;;;;;;0.00;0.00;;;;;;;36.43;37.30;100383.63;4987680;28;20461;-71
2023/09/09 09:30:14;;;;;;;0.00;0.00;;;;;;;36.89;35.84;100395.88;4981663;28;20010;-71
2023/09/09 09:32:42;;;;;;;0.00;0.00;;;;;;;37.14;35.22;100394.38;4989950;28;20032;-73
2023/09/09 09:35:28;;;;;;;0.00;0.00;;;;;;;37.62;34.64;100395.41;4982707;28;20034;-72
2023/09/09 09:37:55;;;;;;;0.00;0.00;;;;;;;37.90;33.60;100392.94;4978412;28;20026;-70
2023/09/09 09:40:21;;;;;;;0.00;0.00;;;;;;;38.11;32.77;100404.91;4989246;28;20030;-71
2023/09/09 09:42:46;;;;;;;0.00;0.00;;;;;;;37.42;31.50;100400.50;4982477;28;20022;-71
2023/09/09 09:45:12;;;;;;;0.00;0.00;;;;;;;37.07;30.96;100395.34;4975906;28;20190;-72
2023/09/09 09:47:48;;;;;;;0.00;0.00;;;;;;;37.52;30.72;100402.22;4967569;28;20030;-72
2023/09/09 09:50:17;;;;;;;0.00;0.00;;;;;;;37.49;29.59;100395.38;4977686;28;20835;-73
2023/09/09 09:52:47;;;;;;;0.00;0.00;;;;;;;37.23;29.85;100388.00;4982763;28;20069;-72
2023/09/09 09:55:17;;;;;;;0.00;0.00;;;;;;;36.99;29.89;100394.75;4976183;28;20037;-71
2023/09/09 09:57:46;;;;;;;0.00;0.00;;;;;;;37.09;29.82;100386.34;4988069;28;20059;-72
2023/09/09 10:00:13;;;;;;;0.00;0.00;;;;;;;36.82;30.13;100390.38;4983077;28;20099;-72
2023/09/09 10:02:40;;;;;;;0.00;0.00;;;;;;;36.54;30.53;100387.00;4991407;28;20035;-73
2023/09/09 10:05:10;;;;;;;0.00;0.00;;;;;;;36.42;31.09;100384.88;4992005;28;20025;-71
2023/09/09 10:07:38;;;;;;;0.00;0.00;;;;;;;36.52;31.47;100383.78;4982036;28;20473;-72
2023/09/09 10:10:08;;;;;;;0.00;0.00;;;;;;;36.49;31.59;100384.69;4983765;28;20165;-72
2023/09/09 10:12:36;;;;;;;0.00;0.00;;;;;;;36.36;30.99;100375.28;4991765;28;20057;-71
2023/09/09 10:15:13;;;;;;;0.00;0.00;;;;;;;35.35;31.76;100366.22;4992567;28;20500;-73
2023/09/09 10:17:41;;;;;;;0.00;0.00;;;;;;;35.09;32.18;100374.41;4986613;28;20397;-71
2023/09/09 10:20:07;;;;;;;0.00;0.00;;;;;;;34.91;32.77;100375.56;4971394;28;20034;-73
2023/09/09 10:22:33;;;;;;;0.00;0.00;;;;;;;34.72;33.08;100368.59;4969711;28;20093;-71
2023/09/09 10:25:03;;;;;;;0.00;0.00;;;;;;;34.69;33.00;100382.88;4953884;28;20034;-72
2023/09/09 10:27:32;;;;;;;0.00;0.00;;;;;;;34.44;33.21;100370.72;4946891;28;20397;-73
2023/09/09 10:29:57;;;;;;;0.00;0.00;;;;;;;34.60;33.75;100363.56;4942486;28;20022;-72
2023/09/09 10:32:26;;;;;;;0.00;0.00;;;;;;;34.59;34.43;100379.00;4960063;28;20026;-73
2023/09/09 10:34:52;;;;;;;0.00;0.00;;;;;;;34.58;34.27;100381.03;4966080;28;20145;-72
2023/09/09 10:37:19;;;;;;;0.00;0.00;;;;;;;34.67;34.10;100382.50;4970058;28;20030;-72
2023/09/09 10:39:48;;;;;;;0.00;0.00;;;;;;;34.31;34.19;100381.09;4954956;28;20037;-72
2023/09/09 10:42:16;;;;;;;0.00;0.00;;;;;;;34.21;34.61;100387.72;4969127;28;20584;-71
2023/09/09 10:44:49;;;;;;;0.00;0.00;;;;;;;34.07;33.68;100389.56;4961431;28;20615;-71
2023/09/09 10:47:16;;;;;;;0.00;0.00;;;;;;;34.36;34.44;100386.28;4962792;28;20032;-70
2023/09/09 10:49:42;;;;;;;0.00;0.00;;;;;;;34.94;34.67;100388.94;4956680;28;20633;-71
2023/09/09 10:52:07;;;;;;;0.00;0.00;;;;;;;35.22;34.47;100381.06;4951168;28;20037;-71
2023/09/09 10:54:34;;;;;;;0.00;0.00;;;;;;;35.58;33.74;100403.06;4954996;28;20093;-72
2023/09/09 10:57:02;;;;;;;0.00;0.00;;;;;;;35.76;33.18;100396.97;4950233;28;20033;-70
2023/09/09 10:59:30;;;;;;;0.00;0.00;;;;;;;36.23;31.73;100390.22;4955424;28;20037;-74
2023/09/09 11:02:18;;;;;;;0.00;0.00;;;;;;;36.94;30.62;100392.44;4967667;28;20038;-72
2023/09/09 11:04:56;;;;;;;0.00;0.00;;;;;;;37.98;29.00;100393.50;4967146;28;20033;-73
2023/09/09 11:07:22;;;;;;;0.00;0.00;;;;;;;39.24;28.01;100392.06;4964841;28;20201;-72
2023/09/09 11:09:53;;;;;;;0.00;0.00;;;;;;;40.90;26.98;100382.47;4925066;28;20450;-72
2023/09/09 11:12:25;;;;;;;0.00;0.00;;;;;;;42.77;25.11;100384.09;4965769;28;20033;-72
2023/09/09 11:14:59;;;;;;;;;;;;;;;44.40;23.84;100383.19;4954829;28;20038;-72
2023/09/09 11:17:28;;;;;;;0.00;0.00;;;;;;;45.31;21.65;100376.38;4966720;28;20013;-71
2023/09/09 11:19:54;;;;;;;0.00;0.00;;;;;;;46.64;20.73;100369.63;4958952;28;20038;-73
2023/09/09 11:22:21;;;;;;;0.00;0.00;;;;;;;48.40;19.46;100367.47;4970029;28;20034;-72